sensor_id;sensor_type;location;lat;lon;timestamp;P1;durP1;ratioP1;P2;durP2;ratioP2
60873;SDS011;46715;40.642;-7.920;2023-02-26T00:00:18;109.95;;;79.93;;
60873;SDS011;46715;40.642;-7.920;2023-02-26T00:02:20;108.45;;;79.43;;
60873;SDS011;46715;40.642;-7.920;2023-02-26T00:04:21;105.87;;;77.80;;
60873;SDS011;46715;40.642;-7.920;2023-02-26T00:06:22;103.72;;;78.40;;
60873;SDS011;46715;40.642;-7.920;2023-02-26T00:08:24;99.28;;;74.13;;
60873;SDS011;46715;40.642;-7.920;2023-02-26T00:10:25;98.23;;;73.03;;
60873;SDS011;46715;40.642;-7.920;2023-02-26T00:12:26;104.97;;;73.30;;
60873;SDS011;46715;40.642;-7.920;2023-02-26T00:14:27;100.50;;;73.30;;
60873;SDS011;46715;40.642;-7.920;2023-02-26T00:16:29;103.05;;;74.15;;
60873;SDS011;46715;40.642;-7.920;2023-02-26T00:18:34;111.13;;;81.18;;
60873;SDS011;46715;40.642;-7.920;2023-02-26T00:20:35;107.30;;;83.00;;
60873;SDS011;46715;40.642;-7.920;2023-02-26T00:22:37;109.25;;;81.15;;
60873;SDS011;46715;40.642;-7.920;2023-02-26T00:24:39;117.60;;;82.30;;
60873;SDS011;46715;40.642;-7.920;2023-02-26T00:26:41;116.18;;;86.82;;
60873;SDS011;46715;40.642;-7.920;2023-02-26T00:28:42;111.67;;;83.50;;
60873;SDS011;46715;40.642;-7.920;2023-02-26T00:30:43;123.17;;;91.83;;
60873;SDS011;46715;40.642;-7.920;2023-02-26T00:32:44;118.15;;;87.90;;
60873;SDS011;46715;40.642;-7.920;2023-02-26T00:34:46;126.35;;;92.53;;
60873;SDS011;46715;40.642;-7.920;2023-02-26T00:41:00;129.65;;;94.68;;
60873;SDS011;46715;40.642;-7.920;2023-02-26T00:43:04;127.87;;;90.77;;
60873;SDS011;46715;40.642;-7.920;2023-02-26T00:45:08;132.80;;;95.18;;
60873;SDS011;46715;40.642;-7.920;2023-02-26T00:47:29;139.27;;;101.97;;
60873;SDS011;46715;40.642;-7.920;2023-02-26T00:50:04;131.18;;;97.97;;
60873;SDS011;46715;40.642;-7.920;2023-02-26T00:52:19;129.25;;;91.95;;
60873;SDS011;46715;40.642;-7.920;2023-02-26T00:54:28;132.43;;;94.15;;
60873;SDS011;46715;40.642;-7.920;2023-02-26T00:56:30;128.25;;;95.43;;
60873;SDS011;46715;40.642;-7.920;2023-02-26T00:58:31;141.63;;;101.87;;
60873;SDS011;46715;40.642;-7.920;2023-02-26T01:00:31;135.87;;;100.37;;
60873;SDS011;46715;40.642;-7.920;2023-02-26T01:02:35;123.50;;;86.10;;
60873;SDS011;46715;40.642;-7.920;2023-02-26T01:04:37;120.97;;;89.10;;
60873;SDS011;46715;40.642;-7.920;2023-02-26T01:06:49;124.90;;;91.15;;
60873;SDS011;46715;40.642;-7.920;2023-02-26T01:11:13;59.20;;;45.60;;
60873;SDS011;46715;40.642;-7.920;2023-02-26T01:13:14;55.33;;;43.70;;
60873;SDS011;46715;40.642;-7.920;2023-02-26T01:15:15;55.63;;;43.60;;
60873;SDS011;46715;40.642;-7.920;2023-02-26T01:17:20;55.83;;;41.67;;
60873;SDS011;46715;40.642;-7.920;2023-02-26T01:19:31;57.45;;;42.55;;
60873;SDS011;46715;40.642;-7.920;2023-02-26T01:21:42;54.28;;;42.25;;
60873;SDS011;46715;40.642;-7.920;2023-02-26T01:23:50;57.63;;;44.13;;
60873;SDS011;46715;40.642;-7.920;2023-02-26T01:25:53;52.95;;;41.83;;
60873;SDS011;46715;40.642;-7.920;2023-02-26T01:27:57;60.40;;;45.58;;
60873;SDS011;46715;40.642;-7.920;2023-02-26T01:29:58;52.17;;;41.83;;
60873;SDS011;46715;40.642;-7.920;2023-02-26T01:32:05;52.70;;;41.30;;
60873;SDS011;46715;40.642;-7.920;2023-02-26T01:34:31;54.33;;;40.90;;
60873;SDS011;46715;40.642;-7.920;2023-02-26T01:36:40;54.17;;;39.85;;
60873;SDS011;46715;40.642;-7.920;2023-02-26T01:39:05;58.92;;;41.67;;
60873;SDS011;46715;40.642;-7.920;2023-02-26T01:43:27;44.53;;;33.87;;
60873;SDS011;46715;40.642;-7.920;2023-02-26T01:45:55;37.83;;;28.13;;
60873;SDS011;46715;40.642;-7.920;2023-02-26T01:48:06;39.47;;;27.58;;
60873;SDS011;46715;40.642;-7.920;2023-02-26T01:50:19;35.55;;;25.80;;
60873;SDS011;46715;40.642;-7.920;2023-02-26T01:54:32;38.67;;;29.10;;
60873;SDS011;46715;40.642;-7.920;2023-02-26T01:56:35;36.45;;;26.02;;
60873;SDS011;46715;40.642;-7.920;2023-02-26T01:58:37;34.83;;;25.60;;
60873;SDS011;46715;40.642;-7.920;2023-02-26T02:00:39;33.05;;;24.65;;
60873;SDS011;46715;40.642;-7.920;2023-02-26T02:02:40;33.85;;;23.23;;
60873;SDS011;46715;40.642;-7.920;2023-02-26T02:04:40;34.05;;;25.02;;
60873;SDS011;46715;40.642;-7.920;2023-02-26T02:06:43;37.20;;;27.40;;
60873;SDS011;46715;40.642;-7.920;2023-02-26T02:08:45;45.10;;;34.50;;
60873;SDS011;46715;40.642;-7.920;2023-02-26T02:10:46;51.15;;;38.08;;
60873;SDS011;46715;40.642;-7.920;2023-02-26T02:15:20;61.60;;;40.10;;
60873;SDS011;46715;40.642;-7.920;2023-02-26T02:22:31;55.08;;;37.42;;
60873;SDS011;46715;40.642;-7.920;2023-02-26T02:24:57;52.60;;;37.80;;
60873;SDS011;46715;40.642;-7.920;2023-02-26T02:27:24;53.35;;;37.53;;
60873;SDS011;46715;40.642;-7.920;2023-02-26T02:30:00;48.92;;;36.72;;
60873;SDS011;46715;40.642;-7.920;2023-02-26T02:35:12;49.92;;;34.65;;
60873;SDS011;46715;40.642;-7.920;2023-02-26T02:37:24;56.20;;;39.45;;
60873;SDS011;46715;40.642;-7.920;2023-02-26T02:41:52;58.92;;;40.70;;
60873;SDS011;46715;40.642;-7.920;2023-02-26T02:43:58;57.22;;;40.72;;
60873;SDS011;46715;40.642;-7.920;2023-02-26T02:46:03;47.05;;;35.70;;
60873;SDS011;46715;40.642;-7.920;2023-02-26T02:48:09;46.45;;;34.05;;
60873;SDS011;46715;40.642;-7.920;2023-02-26T02:50:33;42.30;;;32.25;;
60873;SDS011;46715;40.642;-7.920;2023-02-26T02:52:40;48.70;;;35.45;;
60873;SDS011;46715;40.642;-7.920;2023-02-26T02:54:49;46.03;;;34.28;;
60873;SDS011;46715;40.642;-7.920;2023-02-26T02:56:57;46.53;;;33.80;;
60873;SDS011;46715;40.642;-7.920;2023-02-26T02:59:27;47.53;;;34.15;;
60873;SDS011;46715;40.642;-7.920;2023-02-26T03:01:30;43.75;;;31.85;;
60873;SDS011;46715;40.642;-7.920;2023-02-26T03:03:40;45.35;;;32.70;;
60873;SDS011;46715;40.642;-7.920;2023-02-26T03:06:04;42.65;;;31.15;;
60873;SDS011;46715;40.642;-7.920;2023-02-26T03:08:06;47.80;;;31.87;;
60873;SDS011;46715;40.642;-7.920;2023-02-26T03:10:10;45.50;;;33.05;;
60873;SDS011;46715;40.642;-7.920;2023-02-26T03:12:12;45.38;;;33.03;;
60873;SDS011;46715;40.642;-7.920;2023-02-26T03:14:13;43.77;;;31.57;;
60873;SDS011;46715;40.642;-7.920;2023-02-26T03:18:49;37.60;;;28.27;;
60873;SDS011;46715;40.642;-7.920;2023-02-26T03:25:30;39.13;;;28.85;;
60873;SDS011;46715;40.642;-7.920;2023-02-26T03:30:06;39.05;;;28.67;;
60873;SDS011;46715;40.642;-7.920;2023-02-26T03:32:40;37.58;;;26.55;;
60873;SDS011;46715;40.642;-7.920;2023-02-26T03:34:58;35.58;;;26.40;;
60873;SDS011;46715;40.642;-7.920;2023-02-26T03:37:04;35.28;;;24.85;;
60873;SDS011;46715;40.642;-7.920;2023-02-26T03:39:34;33.53;;;23.73;;
60873;SDS011;46715;40.642;-7.920;2023-02-26T03:41:46;30.08;;;23.60;;
60873;SDS011;46715;40.642;-7.920;2023-02-26T03:44:05;31.52;;;22.15;;
60873;SDS011;46715;40.642;-7.920;2023-02-26T03:46:15;31.55;;;23.52;;
60873;SDS011;46715;40.642;-7.920;2023-02-26T03:48:22;32.25;;;21.50;;
60873;SDS011;46715;40.642;-7.920;2023-02-26T03:53:22;27.58;;;21.00;;
60873;SDS011;46715;40.642;-7.920;2023-02-26T03:55:35;27.08;;;20.25;;
60873;SDS011;46715;40.642;-7.920;2023-02-26T03:58:05;32.80;;;21.90;;
60873;SDS011;46715;40.642;-7.920;2023-02-26T04:00:24;30.20;;;21.52;;
60873;SDS011;46715;40.642;-7.920;2023-02-26T04:02:32;30.52;;;22.15;;
60873;SDS011;46715;40.642;-7.920;2023-02-26T04:04:51;29.95;;;21.63;;
60873;SDS011;46715;40.642;-7.920;2023-02-26T04:06:55;29.45;;;22.75;;
60873;SDS011;46715;40.642;-7.920;2023-02-26T04:08:56;29.73;;;23.40;;
60873;SDS011;46715;40.642;-7.920;2023-02-26T04:10:58;31.95;;;23.85;;
60873;SDS011;46715;40.642;-7.920;2023-02-26T04:13:20;33.00;;;23.55;;
60873;SDS011;46715;40.642;-7.920;2023-02-26T04:17:23;36.55;;;23.55;;
60873;SDS011;46715;40.642;-7.920;2023-02-26T04:19:24;31.73;;;23.27;;
60873;SDS011;46715;40.642;-7.920;2023-02-26T04:21:26;30.20;;;23.83;;
60873;SDS011;46715;40.642;-7.920;2023-02-26T04:23:27;35.93;;;24.67;;
60873;SDS011;46715;40.642;-7.920;2023-02-26T04:25:28;34.08;;;24.63;;
60873;SDS011;46715;40.642;-7.920;2023-02-26T04:27:30;34.85;;;24.90;;
60873;SDS011;46715;40.642;-7.920;2023-02-26T04:29:31;34.17;;;26.00;;
60873;SDS011;46715;40.642;-7.920;2023-02-26T04:31:31;31.60;;;23.97;;
60873;SDS011;46715;40.642;-7.920;2023-02-26T04:33:33;29.60;;;22.65;;
60873;SDS011;46715;40.642;-7.920;2023-02-26T04:35:34;30.30;;;22.25;;
60873;SDS011;46715;40.642;-7.920;2023-02-26T04:37:35;28.40;;;20.83;;
60873;SDS011;46715;40.642;-7.920;2023-02-26T04:39:36;25.87;;;19.87;;
60873;SDS011;46715;40.642;-7.920;2023-02-26T04:41:37;31.48;;;21.48;;
60873;SDS011;46715;40.642;-7.920;2023-02-26T04:43:38;30.55;;;21.40;;
60873;SDS011;46715;40.642;-7.920;2023-02-26T04:45:53;30.38;;;22.25;;
60873;SDS011;46715;40.642;-7.920;2023-02-26T04:47:54;39.57;;;24.87;;
60873;SDS011;46715;40.642;-7.920;2023-02-26T04:49:55;35.83;;;24.93;;
60873;SDS011;46715;40.642;-7.920;2023-02-26T04:51:56;30.83;;;21.57;;
60873;SDS011;46715;40.642;-7.920;2023-02-26T04:53:57;31.83;;;22.42;;
60873;SDS011;46715;40.642;-7.920;2023-02-26T04:55:58;32.37;;;23.47;;
60873;SDS011;46715;40.642;-7.920;2023-02-26T04:57:59;36.63;;;24.30;;
60873;SDS011;46715;40.642;-7.920;2023-02-26T05:00:00;35.92;;;23.92;;
60873;SDS011;46715;40.642;-7.920;2023-02-26T05:02:07;31.08;;;20.98;;
60873;SDS011;46715;40.642;-7.920;2023-02-26T05:04:13;31.48;;;20.85;;
60873;SDS011;46715;40.642;-7.920;2023-02-26T05:06:17;35.28;;;23.02;;
60873;SDS011;46715;40.642;-7.920;2023-02-26T05:08:18;32.77;;;22.77;;
60873;SDS011;46715;40.642;-7.920;2023-02-26T05:10:19;28.58;;;20.23;;
60873;SDS011;46715;40.642;-7.920;2023-02-26T05:12:20;28.85;;;19.52;;
60873;SDS011;46715;40.642;-7.920;2023-02-26T05:14:22;29.63;;;18.58;;
60873;SDS011;46715;40.642;-7.920;2023-02-26T05:16:22;29.67;;;18.30;;
60873;SDS011;46715;40.642;-7.920;2023-02-26T05:18:23;24.23;;;18.17;;
60873;SDS011;46715;40.642;-7.920;2023-02-26T05:20:24;26.70;;;18.50;;
60873;SDS011;46715;40.642;-7.920;2023-02-26T05:22:25;24.73;;;16.80;;
60873;SDS011;46715;40.642;-7.920;2023-02-26T05:24:26;26.70;;;18.13;;
60873;SDS011;46715;40.642;-7.920;2023-02-26T05:26:27;23.95;;;17.77;;
60873;SDS011;46715;40.642;-7.920;2023-02-26T05:28:28;26.57;;;17.93;;
60873;SDS011;46715;40.642;-7.920;2023-02-26T05:30:29;26.30;;;18.50;;
60873;SDS011;46715;40.642;-7.920;2023-02-26T05:32:30;29.25;;;19.38;;
60873;SDS011;46715;40.642;-7.920;2023-02-26T05:34:31;25.85;;;17.58;;
60873;SDS011;46715;40.642;-7.920;2023-02-26T05:36:31;28.20;;;18.35;;
60873;SDS011;46715;40.642;-7.920;2023-02-26T05:38:32;26.13;;;18.35;;
60873;SDS011;46715;40.642;-7.920;2023-02-26T05:40:33;25.87;;;17.73;;
60873;SDS011;46715;40.642;-7.920;2023-02-26T05:42:33;23.52;;;16.45;;
60873;SDS011;46715;40.642;-7.920;2023-02-26T05:44:34;22.90;;;16.10;;
60873;SDS011;46715;40.642;-7.920;2023-02-26T05:46:35;26.60;;;15.05;;
60873;SDS011;46715;40.642;-7.920;2023-02-26T05:48:36;25.23;;;15.93;;
60873;SDS011;46715;40.642;-7.920;2023-02-26T05:50:37;22.02;;;14.63;;
60873;SDS011;46715;40.642;-7.920;2023-02-26T05:52:38;17.67;;;13.00;;
60873;SDS011;46715;40.642;-7.920;2023-02-26T05:54:39;20.70;;;13.10;;
60873;SDS011;46715;40.642;-7.920;2023-02-26T05:56:39;18.00;;;13.43;;
60873;SDS011;46715;40.642;-7.920;2023-02-26T05:58:41;18.50;;;13.50;;
60873;SDS011;46715;40.642;-7.920;2023-02-26T06:00:42;22.42;;;14.73;;
60873;SDS011;46715;40.642;-7.920;2023-02-26T06:02:42;20.88;;;14.52;;
60873;SDS011;46715;40.642;-7.920;2023-02-26T06:04:43;23.80;;;15.93;;
60873;SDS011;46715;40.642;-7.920;2023-02-26T06:06:44;21.00;;;15.07;;
60873;SDS011;46715;40.642;-7.920;2023-02-26T06:08:45;18.90;;;14.05;;
60873;SDS011;46715;40.642;-7.920;2023-02-26T06:10:46;20.73;;;14.27;;
60873;SDS011;46715;40.642;-7.920;2023-02-26T06:12:46;19.53;;;14.07;;
60873;SDS011;46715;40.642;-7.920;2023-02-26T06:14:47;28.67;;;15.98;;
60873;SDS011;46715;40.642;-7.920;2023-02-26T06:16:48;20.13;;;13.37;;
60873;SDS011;46715;40.642;-7.920;2023-02-26T06:18:49;20.07;;;13.63;;
60873;SDS011;46715;40.642;-7.920;2023-02-26T06:20:50;24.10;;;14.13;;
60873;SDS011;46715;40.642;-7.920;2023-02-26T06:22:50;17.97;;;12.87;;
60873;SDS011;46715;40.642;-7.920;2023-02-26T06:24:51;21.02;;;13.65;;
60873;SDS011;46715;40.642;-7.920;2023-02-26T06:26:54;11.60;;;10.05;;
60873;SDS011;46715;40.642;-7.920;2023-02-26T06:28:55;16.13;;;11.53;;
60873;SDS011;46715;40.642;-7.920;2023-02-26T06:30:56;17.42;;;11.05;;
60873;SDS011;46715;40.642;-7.920;2023-02-26T06:32:57;17.52;;;11.55;;
60873;SDS011;46715;40.642;-7.920;2023-02-26T06:34:58;14.57;;;10.70;;
60873;SDS011;46715;40.642;-7.920;2023-02-26T06:36:59;15.10;;;11.60;;
60873;SDS011;46715;40.642;-7.920;2023-02-26T06:39:00;17.27;;;11.15;;
60873;SDS011;46715;40.642;-7.920;2023-02-26T06:41:00;15.87;;;11.43;;
60873;SDS011;46715;40.642;-7.920;2023-02-26T06:43:01;16.93;;;11.77;;
60873;SDS011;46715;40.642;-7.920;2023-02-26T06:45:02;14.67;;;11.07;;
60873;SDS011;46715;40.642;-7.920;2023-02-26T06:47:03;12.60;;;10.10;;
60873;SDS011;46715;40.642;-7.920;2023-02-26T06:49:04;14.30;;;10.67;;
60873;SDS011;46715;40.642;-7.920;2023-02-26T06:51:05;16.10;;;11.48;;
60873;SDS011;46715;40.642;-7.920;2023-02-26T06:53:06;19.20;;;11.80;;
60873;SDS011;46715;40.642;-7.920;2023-02-26T06:55:07;13.70;;;10.47;;
60873;SDS011;46715;40.642;-7.920;2023-02-26T06:57:08;17.25;;;11.27;;
60873;SDS011;46715;40.642;-7.920;2023-02-26T06:59:09;20.45;;;12.95;;
60873;SDS011;46715;40.642;-7.920;2023-02-26T07:01:10;16.73;;;11.90;;
60873;SDS011;46715;40.642;-7.920;2023-02-26T07:03:11;20.87;;;11.97;;
60873;SDS011;46715;40.642;-7.920;2023-02-26T07:05:13;18.05;;;12.80;;
60873;SDS011;46715;40.642;-7.920;2023-02-26T07:07:14;14.83;;;9.13;;
60873;SDS011;46715;40.642;-7.920;2023-02-26T07:09:15;12.32;;;8.98;;
60873;SDS011;46715;40.642;-7.920;2023-02-26T07:11:16;15.53;;;9.23;;
60873;SDS011;46715;40.642;-7.920;2023-02-26T07:13:17;14.70;;;9.50;;
60873;SDS011;46715;40.642;-7.920;2023-02-26T07:15:18;12.00;;;9.02;;
60873;SDS011;46715;40.642;-7.920;2023-02-26T07:17:18;13.37;;;8.93;;
60873;SDS011;46715;40.642;-7.920;2023-02-26T07:19:20;13.02;;;9.25;;
60873;SDS011;46715;40.642;-7.920;2023-02-26T07:21:20;14.60;;;8.82;;
60873;SDS011;46715;40.642;-7.920;2023-02-26T07:23:21;12.90;;;9.10;;
60873;SDS011;46715;40.642;-7.920;2023-02-26T07:25:22;13.85;;;8.38;;
60873;SDS011;46715;40.642;-7.920;2023-02-26T07:27:24;10.02;;;8.18;;
60873;SDS011;46715;40.642;-7.920;2023-02-26T07:29:24;12.75;;;8.57;;
60873;SDS011;46715;40.642;-7.920;2023-02-26T07:31:25;10.80;;;8.40;;
60873;SDS011;46715;40.642;-7.920;2023-02-26T07:33:26;10.23;;;7.40;;
60873;SDS011;46715;40.642;-7.920;2023-02-26T07:35:28;12.00;;;7.57;;
60873;SDS011;46715;40.642;-7.920;2023-02-26T07:37:28;9.20;;;8.20;;
60873;SDS011;46715;40.642;-7.920;2023-02-26T07:39:30;13.48;;;8.68;;
60873;SDS011;46715;40.642;-7.920;2023-02-26T07:41:31;10.20;;;7.32;;
60873;SDS011;46715;40.642;-7.920;2023-02-26T07:43:32;8.50;;;7.05;;
60873;SDS011;46715;40.642;-7.920;2023-02-26T07:45:33;11.70;;;7.75;;
60873;SDS011;46715;40.642;-7.920;2023-02-26T07:47:34;12.67;;;7.07;;
60873;SDS011;46715;40.642;-7.920;2023-02-26T07:49:35;9.87;;;6.20;;
60873;SDS011;46715;40.642;-7.920;2023-02-26T07:51:36;9.32;;;6.63;;
60873;SDS011;46715;40.642;-7.920;2023-02-26T07:53:37;9.43;;;6.18;;
60873;SDS011;46715;40.642;-7.920;2023-02-26T07:55:38;8.00;;;5.87;;
60873;SDS011;46715;40.642;-7.920;2023-02-26T07:57:39;7.40;;;5.57;;
60873;SDS011;46715;40.642;-7.920;2023-02-26T07:59:39;8.27;;;6.00;;
60873;SDS011;46715;40.642;-7.920;2023-02-26T08:01:40;7.73;;;5.53;;
60873;SDS011;46715;40.642;-7.920;2023-02-26T08:03:41;6.57;;;5.07;;
60873;SDS011;46715;40.642;-7.920;2023-02-26T08:05:42;8.63;;;4.90;;
60873;SDS011;46715;40.642;-7.920;2023-02-26T08:07:42;5.63;;;4.50;;
60873;SDS011;46715;40.642;-7.920;2023-02-26T08:09:43;7.37;;;4.50;;
60873;SDS011;46715;40.642;-7.920;2023-02-26T08:11:44;6.10;;;4.53;;
60873;SDS011;46715;40.642;-7.920;2023-02-26T08:13:45;8.13;;;4.50;;
60873;SDS011;46715;40.642;-7.920;2023-02-26T08:15:46;8.27;;;4.40;;
60873;SDS011;46715;40.642;-7.920;2023-02-26T08:17:47;6.63;;;4.27;;
60873;SDS011;46715;40.642;-7.920;2023-02-26T08:19:51;9.68;;;4.50;;
60873;SDS011;46715;40.642;-7.920;2023-02-26T08:21:52;7.70;;;4.15;;
60873;SDS011;46715;40.642;-7.920;2023-02-26T08:26:01;4.40;;;3.30;;
60873;SDS011;46715;40.642;-7.920;2023-02-26T08:28:03;6.05;;;3.60;;
60873;SDS011;46715;40.642;-7.920;2023-02-26T08:30:04;6.03;;;2.95;;
60873;SDS011;46715;40.642;-7.920;2023-02-26T08:32:07;5.75;;;3.67;;
60873;SDS011;46715;40.642;-7.920;2023-02-26T08:34:08;6.05;;;3.80;;
60873;SDS011;46715;40.642;-7.920;2023-02-26T08:38:11;5.13;;;3.90;;
60873;SDS011;46715;40.642;-7.920;2023-02-26T08:40:12;6.13;;;4.22;;
60873;SDS011;46715;40.642;-7.920;2023-02-26T08:42:13;5.25;;;3.83;;
60873;SDS011;46715;40.642;-7.920;2023-02-26T08:44:15;8.98;;;4.43;;
60873;SDS011;46715;40.642;-7.920;2023-02-26T08:46:16;5.70;;;3.93;;
60873;SDS011;46715;40.642;-7.920;2023-02-26T08:48:18;6.60;;;3.53;;
60873;SDS011;46715;40.642;-7.920;2023-02-26T08:50:19;9.43;;;3.83;;
60873;SDS011;46715;40.642;-7.920;2023-02-26T08:52:20;5.38;;;2.90;;
60873;SDS011;46715;40.642;-7.920;2023-02-26T08:54:21;5.95;;;3.65;;
60873;SDS011;46715;40.642;-7.920;2023-02-26T08:56:22;4.40;;;3.80;;
60873;SDS011;46715;40.642;-7.920;2023-02-26T08:58:23;5.13;;;3.63;;
60873;SDS011;46715;40.642;-7.920;2023-02-26T09:00:24;8.18;;;3.65;;
60873;SDS011;46715;40.642;-7.920;2023-02-26T09:02:25;5.10;;;3.00;;
60873;SDS011;46715;40.642;-7.920;2023-02-26T09:04:26;5.37;;;3.63;;
60873;SDS011;46715;40.642;-7.920;2023-02-26T09:06:27;7.00;;;3.58;;
60873;SDS011;46715;40.642;-7.920;2023-02-26T09:08:28;4.85;;;3.58;;
60873;SDS011;46715;40.642;-7.920;2023-02-26T09:10:33;5.60;;;3.85;;
60873;SDS011;46715;40.642;-7.920;2023-02-26T09:12:33;5.68;;;3.38;;
60873;SDS011;46715;40.642;-7.920;2023-02-26T09:14:37;4.15;;;3.28;;
60873;SDS011;46715;40.642;-7.920;2023-02-26T09:16:39;6.32;;;3.67;;
60873;SDS011;46715;40.642;-7.920;2023-02-26T09:18:40;8.90;;;4.10;;
60873;SDS011;46715;40.642;-7.920;2023-02-26T09:20:42;5.60;;;4.13;;
60873;SDS011;46715;40.642;-7.920;2023-02-26T09:22:43;6.60;;;4.95;;
60873;SDS011;46715;40.642;-7.920;2023-02-26T09:24:44;5.22;;;4.53;;
60873;SDS011;46715;40.642;-7.920;2023-02-26T09:26:45;7.97;;;5.17;;
60873;SDS011;46715;40.642;-7.920;2023-02-26T09:28:47;6.55;;;4.32;;
60873;SDS011;46715;40.642;-7.920;2023-02-26T09:30:50;7.60;;;5.30;;
60873;SDS011;46715;40.642;-7.920;2023-02-26T09:32:52;7.03;;;4.97;;
60873;SDS011;46715;40.642;-7.920;2023-02-26T09:34:53;10.00;;;6.83;;
60873;SDS011;46715;40.642;-7.920;2023-02-26T09:36:54;7.73;;;5.10;;
60873;SDS011;46715;40.642;-7.920;2023-02-26T09:38:54;8.33;;;5.13;;
60873;SDS011;46715;40.642;-7.920;2023-02-26T09:41:08;8.80;;;4.50;;
60873;SDS011;46715;40.642;-7.920;2023-02-26T09:43:29;7.28;;;4.53;;
60873;SDS011;46715;40.642;-7.920;2023-02-26T09:45:41;176.00;;;93.22;;
60873;SDS011;46715;40.642;-7.920;2023-02-26T09:47:46;27.63;;;21.30;;
60873;SDS011;46715;40.642;-7.920;2023-02-26T09:49:53;16.13;;;11.52;;
60873;SDS011;46715;40.642;-7.920;2023-02-26T09:52:01;5.15;;;3.63;;
60873;SDS011;46715;40.642;-7.920;2023-02-26T09:54:15;14.30;;;10.47;;
60873;SDS011;46715;40.642;-7.920;2023-02-26T09:56:20;6.43;;;4.03;;
60873;SDS011;46715;40.642;-7.920;2023-02-26T10:02:51;6.03;;;4.18;;
60873;SDS011;46715;40.642;-7.920;2023-02-26T10:05:03;3.78;;;2.92;;
60873;SDS011;46715;40.642;-7.920;2023-02-26T10:11:48;6.18;;;4.30;;
60873;SDS011;46715;40.642;-7.920;2023-02-26T10:14:00;5.75;;;3.75;;
60873;SDS011;46715;40.642;-7.920;2023-02-26T10:16:14;7.20;;;4.60;;
60873;SDS011;46715;40.642;-7.920;2023-02-26T10:18:22;9.73;;;6.32;;
60873;SDS011;46715;40.642;-7.920;2023-02-26T10:21:13;21.45;;;15.82;;
60873;SDS011;46715;40.642;-7.920;2023-02-26T10:22:59;13.32;;;7.35;;
60873;SDS011;46715;40.642;-7.920;2023-02-26T10:25:02;5.38;;;3.50;;
60873;SDS011;46715;40.642;-7.920;2023-02-26T10:27:14;5.00;;;3.28;;
60873;SDS011;46715;40.642;-7.920;2023-02-26T10:29:26;7.68;;;4.50;;
60873;SDS011;46715;40.642;-7.920;2023-02-26T10:31:37;8.30;;;4.22;;
60873;SDS011;46715;40.642;-7.920;2023-02-26T10:36:18;7.82;;;4.72;;
60873;SDS011;46715;40.642;-7.920;2023-02-26T10:38:25;6.70;;;4.10;;
60873;SDS011;46715;40.642;-7.920;2023-02-26T10:40:41;12.65;;;10.20;;
60873;SDS011;46715;40.642;-7.920;2023-02-26T10:42:51;8.00;;;4.25;;
60873;SDS011;46715;40.642;-7.920;2023-02-26T10:51:50;7.72;;;5.10;;
60873;SDS011;46715;40.642;-7.920;2023-02-26T10:53:54;9.50;;;6.50;;
60873;SDS011;46715;40.642;-7.920;2023-02-26T10:56:10;6.00;;;3.75;;
60873;SDS011;46715;40.642;-7.920;2023-02-26T10:58:28;4.95;;;4.07;;
60873;SDS011;46715;40.642;-7.920;2023-02-26T11:00:29;8.30;;;4.03;;
60873;SDS011;46715;40.642;-7.920;2023-02-26T11:02:33;5.40;;;3.92;;
60873;SDS011;46715;40.642;-7.920;2023-02-26T11:04:45;229.25;;;132.45;;
60873;SDS011;46715;40.642;-7.920;2023-02-26T11:08:51;7.63;;;4.50;;
60873;SDS011;46715;40.642;-7.920;2023-02-26T11:10:55;6.03;;;4.60;;
60873;SDS011;46715;40.642;-7.920;2023-02-26T11:12:57;7.05;;;4.63;;
60873;SDS011;46715;40.642;-7.920;2023-02-26T11:14:59;8.03;;;5.20;;
60873;SDS011;46715;40.642;-7.920;2023-02-26T11:17:02;6.15;;;4.70;;
60873;SDS011;46715;40.642;-7.920;2023-02-26T11:19:10;6.45;;;4.40;;
60873;SDS011;46715;40.642;-7.920;2023-02-26T11:21:17;9.40;;;5.00;;
60873;SDS011;46715;40.642;-7.920;2023-02-26T11:23:27;5.95;;;3.90;;
60873;SDS011;46715;40.642;-7.920;2023-02-26T11:25:31;8.98;;;4.82;;
60873;SDS011;46715;40.642;-7.920;2023-02-26T11:27:35;8.10;;;4.45;;
60873;SDS011;46715;40.642;-7.920;2023-02-26T11:29:38;7.38;;;4.13;;
60873;SDS011;46715;40.642;-7.920;2023-02-26T11:31:41;6.40;;;4.53;;
60873;SDS011;46715;40.642;-7.920;2023-02-26T11:33:47;7.03;;;4.25;;
60873;SDS011;46715;40.642;-7.920;2023-02-26T11:35:53;7.22;;;4.28;;
60873;SDS011;46715;40.642;-7.920;2023-02-26T11:37:59;9.52;;;4.75;;
60873;SDS011;46715;40.642;-7.920;2023-02-26T11:40:44;6.70;;;4.05;;
60873;SDS011;46715;40.642;-7.920;2023-02-26T11:42:54;9.15;;;4.20;;
60873;SDS011;46715;40.642;-7.920;2023-02-26T11:44:57;6.38;;;4.13;;
60873;SDS011;46715;40.642;-7.920;2023-02-26T11:46:58;8.53;;;4.30;;
60873;SDS011;46715;40.642;-7.920;2023-02-26T11:49:04;59.50;;;30.17;;
60873;SDS011;46715;40.642;-7.920;2023-02-26T11:51:06;5.60;;;3.35;;
60873;SDS011;46715;40.642;-7.920;2023-02-26T11:53:15;5.35;;;2.88;;
60873;SDS011;46715;40.642;-7.920;2023-02-26T11:59:41;4.07;;;3.30;;
60873;SDS011;46715;40.642;-7.920;2023-02-26T12:01:48;6.15;;;4.70;;
60873;SDS011;46715;40.642;-7.920;2023-02-26T12:03:50;6.10;;;3.60;;
60873;SDS011;46715;40.642;-7.920;2023-02-26T12:05:52;5.97;;;3.00;;
60873;SDS011;46715;40.642;-7.920;2023-02-26T12:07:53;5.05;;;3.20;;
60873;SDS011;46715;40.642;-7.920;2023-02-26T12:09:54;3.10;;;2.70;;
60873;SDS011;46715;40.642;-7.920;2023-02-26T12:27:14;4.68;;;2.38;;
60873;SDS011;46715;40.642;-7.920;2023-02-26T12:41:11;4.43;;;2.05;;
60873;SDS011;46715;40.642;-7.920;2023-02-26T12:43:29;3.80;;;2.30;;
60873;SDS011;46715;40.642;-7.920;2023-02-26T12:48:19;3.28;;;2.20;;
60873;SDS011;46715;40.642;-7.920;2023-02-26T12:51:08;6.13;;;2.50;;
60873;SDS011;46715;40.642;-7.920;2023-02-26T13:02:53;2.50;;;1.70;;
60873;SDS011;46715;40.642;-7.920;2023-02-26T13:09:23;3.58;;;2.15;;
60873;SDS011;46715;40.642;-7.920;2023-02-26T13:21:12;4.03;;;2.40;;
60873;SDS011;46715;40.642;-7.920;2023-02-26T13:23:20;2.75;;;1.90;;
60873;SDS011;46715;40.642;-7.920;2023-02-26T13:25:43;4.53;;;2.35;;
60873;SDS011;46715;40.642;-7.920;2023-02-26T13:27:51;2.95;;;1.70;;
60873;SDS011;46715;40.642;-7.920;2023-02-26T13:32:15;2.00;;;1.10;;
60873;SDS011;46715;40.642;-7.920;2023-02-26T13:34:24;1.65;;;1.08;;
60873;SDS011;46715;40.642;-7.920;2023-02-26T13:36:34;3.17;;;1.38;;
60873;SDS011;46715;40.642;-7.920;2023-02-26T13:46:13;2.08;;;1.88;;
60873;SDS011;46715;40.642;-7.920;2023-02-26T13:53:04;3.92;;;2.67;;
60873;SDS011;46715;40.642;-7.920;2023-02-26T13:55:34;4.18;;;2.33;;
60873;SDS011;46715;40.642;-7.920;2023-02-26T13:59:58;4.25;;;2.28;;
60873;SDS011;46715;40.642;-7.920;2023-02-26T14:06:35;3.73;;;2.37;;
60873;SDS011;46715;40.642;-7.920;2023-02-26T14:08:43;4.75;;;2.10;;
60873;SDS011;46715;40.642;-7.920;2023-02-26T14:15:39;3.30;;;2.28;;
60873;SDS011;46715;40.642;-7.920;2023-02-26T14:18:03;5.05;;;2.78;;
60873;SDS011;46715;40.642;-7.920;2023-02-26T14:20:26;3.33;;;2.38;;
60873;SDS011;46715;40.642;-7.920;2023-02-26T14:22:32;2.85;;;2.08;;
60873;SDS011;46715;40.642;-7.920;2023-02-26T14:24:44;3.83;;;2.35;;
60873;SDS011;46715;40.642;-7.920;2023-02-26T14:34:22;3.10;;;2.05;;
60873;SDS011;46715;40.642;-7.920;2023-02-26T14:36:30;3.22;;;2.05;;
60873;SDS011;46715;40.642;-7.920;2023-02-26T14:38:36;6.35;;;2.10;;
60873;SDS011;46715;40.642;-7.920;2023-02-26T14:40:46;3.20;;;2.30;;
60873;SDS011;46715;40.642;-7.920;2023-02-26T14:42:50;3.00;;;1.95;;
60873;SDS011;46715;40.642;-7.920;2023-02-26T14:45:01;4.50;;;1.90;;